METAR Formatted Surface Weather Observation
Issued by NWS

Home | Current Version | Previous Version | Text Only | Print | Product List | Glossary On
Versions: 1 2 3 4
000
SPZS31 NSTU 101646
MTRSPP
SPECI NSTU 101641Z 09013KT 11SM SCT017CB BKN040 BKN100 28/26 A2981
RMK TSE41 CB NE-E=




USA.gov is the U.S. government's official web portal to all federal, state and local government web resources and services.